createdAt,value
2023-02-14T00:01:39.811Z,44.60
2023-02-14T00:04:07.839Z,44.70
2023-02-14T00:06:38.838Z,44.70
2023-02-14T00:09:07.564Z,44.80
2023-02-14T00:11:35.846Z,44.80
2023-02-14T00:14:35.977Z,45.40
2023-02-14T00:17:04.132Z,44.90
2023-02-14T00:19:34.682Z,44.80
2023-02-14T00:22:04.437Z,44.80
2023-02-14T00:24:33.154Z,44.90
2023-02-14T00:27:01.416Z,45.00
2023-02-14T00:29:31.323Z,45.10
2023-02-14T00:31:59.618Z,45.10
2023-02-14T00:34:28.356Z,45.10
2023-02-14T00:36:56.287Z,45.20
2023-02-14T00:39:26.788Z,45.20
2023-02-14T00:41:54.765Z,45.20
2023-02-14T00:44:22.950Z,45.10
2023-02-14T00:46:50.857Z,45.20
2023-02-14T00:49:18.959Z,45.20
2023-02-14T00:51:46.827Z,45.30
2023-02-14T00:54:14.822Z,45.40
2023-02-14T00:56:44.086Z,45.40
2023-02-14T00:59:12.098Z,45.30
2023-02-14T01:01:40.306Z,45.40
2023-02-14T01:04:09.109Z,45.40
2023-02-14T01:06:37.109Z,45.40
2023-02-14T01:09:05.905Z,45.40
2023-02-14T01:11:34.676Z,45.50
2023-02-14T01:14:04.267Z,45.60
2023-02-14T01:16:32.484Z,45.70
2023-02-14T01:19:01.572Z,45.60
2023-02-14T01:21:31.116Z,45.70
2023-02-14T01:24:00.929Z,45.70
2023-02-14T01:26:29.660Z,45.70
2023-02-14T01:28:57.927Z,45.70
2023-02-14T01:31:29.443Z,45.70
2023-02-14T01:33:59.138Z,45.80
2023-02-14T01:36:32.716Z,45.80
2023-02-14T01:39:02.750Z,45.90
2023-02-14T01:41:33.631Z,45.90
2023-02-14T01:44:04.154Z,45.90
2023-02-14T01:46:35.512Z,45.90
2023-02-14T01:49:09.245Z,46.00
2023-02-14T01:51:40.555Z,45.90
2023-02-14T01:54:10.661Z,45.90
2023-02-14T01:56:42.504Z,46.00
2023-02-14T01:59:13.811Z,46.00
2023-02-14T02:01:46.995Z,46.60
2023-02-14T02:04:18.753Z,46.10
2023-02-14T02:06:50.274Z,46.10
2023-02-14T02:09:22.819Z,46.10
2023-02-14T02:11:51.240Z,46.20
2023-02-14T02:14:21.506Z,46.20
2023-02-14T02:17:12.624Z,46.20
2023-02-14T02:20:18.756Z,46.40
2023-02-14T02:23:16.541Z,46.40
2023-02-14T02:26:08.752Z,46.40
2023-02-14T02:29:14.216Z,46.20
2023-02-14T02:32:08.317Z,46.50
2023-02-14T02:35:15.069Z,46.30
2023-02-14T02:37:55.296Z,46.40
2023-02-14T02:40:33.848Z,46.30
2023-02-14T02:43:19.055Z,46.40
2023-02-14T02:46:10.100Z,46.40
2023-02-14T02:48:44.465Z,46.40
2023-02-14T02:51:36.307Z,46.50
2023-02-14T02:54:10.782Z,46.50
2023-02-14T02:56:47.644Z,46.50
2023-02-14T02:59:20.557Z,46.50
2023-02-14T03:01:59.267Z,46.50
2023-02-14T03:04:46.243Z,46.50
2023-02-14T03:07:32.372Z,46.50
2023-02-14T03:10:03.819Z,46.50
2023-02-14T03:12:50.307Z,46.50
2023-02-14T03:15:27.032Z,46.70
2023-02-14T03:18:03.646Z,46.60
2023-02-14T03:20:40.700Z,46.70
2023-02-14T03:23:15.866Z,46.70
2023-02-14T03:25:56.389Z,46.80
2023-02-14T03:28:31.884Z,46.90
2023-02-14T03:31:05.562Z,46.90
2023-02-14T03:33:38.996Z,47.00
2023-02-14T03:36:11.784Z,46.90
2023-02-14T03:38:46.063Z,46.90
2023-02-14T03:41:21.280Z,46.90
2023-02-14T03:43:53.493Z,46.90
2023-02-14T03:46:26.423Z,46.90
2023-02-14T03:48:57.186Z,46.90
2023-02-14T03:51:27.180Z,46.90
2023-02-14T03:53:58.977Z,47.00
2023-02-14T03:56:34.938Z,47.00
2023-02-14T03:59:08.152Z,47.10
2023-02-14T04:01:40.306Z,47.10
2023-02-14T04:04:09.755Z,47.10
2023-02-14T04:06:37.906Z,47.20
2023-02-14T04:09:05.908Z,47.20
2023-02-14T04:11:35.723Z,47.20
2023-02-14T04:14:04.013Z,47.20
2023-02-14T04:16:53.845Z,47.20
2023-02-14T04:19:24.013Z,47.20
2023-02-14T04:21:52.687Z,47.20
2023-02-14T04:24:21.569Z,47.20
2023-02-14T04:27:12.222Z,47.10
2023-02-14T04:29:43.829Z,47.10
2023-02-14T04:32:14.317Z,47.10
2023-02-14T04:34:42.767Z,47.10
2023-02-14T04:37:11.138Z,47.20
2023-02-14T04:39:39.354Z,47.20
2023-02-14T04:42:09.504Z,47.20
2023-02-14T04:44:38.214Z,47.20
2023-02-14T04:47:07.421Z,47.20
2023-02-14T04:49:36.333Z,47.30
2023-02-14T04:52:05.157Z,47.40
2023-02-14T04:54:33.179Z,47.40
2023-02-14T04:57:01.352Z,47.40
2023-02-14T04:59:30.703Z,47.40
2023-02-14T05:01:59.082Z,47.40
2023-02-14T05:04:27.200Z,47.40
2023-02-14T05:06:55.357Z,47.40
2023-02-14T05:09:23.381Z,47.40
2023-02-14T05:11:51.279Z,47.40
2023-02-14T05:14:19.314Z,47.50
2023-02-14T05:16:48.635Z,47.50
2023-02-14T05:19:16.621Z,47.50
2023-02-14T05:21:44.540Z,47.50
2023-02-14T05:24:12.408Z,47.50
2023-02-14T05:26:41.319Z,47.50
2023-02-14T05:29:09.422Z,47.60
2023-02-14T05:31:37.704Z,47.60
2023-02-14T05:34:07.005Z,47.60
2023-02-14T05:36:35.471Z,47.60
2023-02-14T05:39:03.359Z,47.60
2023-02-14T05:41:31.601Z,47.60
2023-02-14T05:43:59.476Z,47.60
2023-02-14T05:46:27.628Z,47.60
2023-02-14T05:48:55.530Z,47.60
2023-02-14T05:51:24.904Z,47.60
2023-02-14T05:53:52.847Z,47.70
2023-02-14T05:56:20.889Z,47.70
2023-02-14T05:58:48.823Z,47.70
2023-02-14T06:01:16.743Z,47.70
2023-02-14T06:03:44.916Z,47.70
2023-02-14T06:06:12.809Z,47.60
2023-02-14T06:08:42.147Z,47.60
2023-02-14T06:11:10.078Z,47.70
2023-02-14T06:13:38.079Z,47.70
2023-02-14T06:16:06.476Z,47.70
2023-02-14T06:18:34.564Z,47.80
2023-02-14T06:21:02.732Z,47.80
2023-02-14T06:23:30.806Z,47.80
2023-02-14T06:26:00.153Z,47.80
2023-02-14T06:28:28.290Z,47.90
2023-02-14T06:30:56.218Z,47.80
2023-02-14T06:33:24.113Z,47.90
2023-02-14T06:35:54.051Z,47.90
2023-02-14T06:38:22.052Z,47.90
2023-02-14T06:40:49.902Z,47.90
2023-02-14T06:43:19.518Z,47.90
2023-02-14T06:45:48.021Z,48.00
2023-02-14T06:48:16.171Z,47.90
2023-02-14T06:50:44.147Z,47.90
2023-02-14T06:53:12.012Z,47.90
2023-02-14T06:55:40.515Z,47.90
2023-02-14T06:58:09.589Z,48.00
2023-02-14T07:00:39.604Z,48.00
2023-02-14T07:03:08.172Z,48.00
2023-02-14T07:05:36.822Z,48.50
2023-02-14T07:08:05.142Z,48.10
2023-02-14T07:10:33.951Z,48.00
2023-02-14T07:13:02.280Z,48.00
2023-02-14T07:15:30.341Z,48.10
2023-02-14T07:17:59.748Z,48.10
2023-02-14T07:20:29.095Z,48.10
2023-02-14T07:22:57.212Z,48.20
2023-02-14T07:25:25.079Z,48.20
2023-02-14T07:27:53.427Z,48.20
2023-02-14T07:30:21.787Z,48.20
2023-02-14T07:32:49.705Z,48.20
2023-02-14T07:35:19.519Z,48.20
2023-02-14T07:37:47.808Z,48.30
2023-02-14T07:40:15.701Z,48.30
2023-02-14T07:42:43.800Z,48.40
2023-02-14T07:45:27.128Z,48.40
2023-02-14T07:47:56.268Z,48.40
2023-02-14T07:50:25.588Z,48.40
2023-02-14T07:52:53.585Z,48.40
2023-02-14T07:55:22.860Z,48.50
2023-02-14T07:57:50.852Z,48.60
2023-02-14T08:00:20.096Z,48.60
2023-02-14T08:02:49.370Z,48.60
2023-02-14T08:05:18.371Z,48.70
2023-02-14T08:07:47.679Z,48.80
2023-02-14T08:10:16.244Z,48.80
2023-02-14T08:13:03.456Z,48.80
2023-02-14T08:15:50.882Z,48.90
2023-02-14T08:18:19.858Z,48.90
2023-02-14T08:20:48.858Z,48.90
2023-02-14T08:23:18.838Z,49.00
2023-02-14T08:25:48.615Z,49.10
2023-02-14T08:28:17.031Z,49.10
2023-02-14T08:30:45.655Z,49.10
2023-02-14T08:33:13.652Z,49.20
2023-02-14T08:35:41.729Z,49.20
2023-02-14T08:38:10.142Z,49.30
2023-02-14T08:40:39.618Z,49.40
2023-02-14T08:43:08.434Z,49.40
2023-02-14T08:45:37.359Z,49.50
2023-02-14T08:48:07.336Z,49.50
2023-02-14T08:50:35.994Z,49.60
2023-02-14T08:53:08.422Z,49.80
2023-02-14T08:55:37.316Z,49.80
2023-02-14T08:58:07.654Z,49.80
2023-02-14T09:00:35.761Z,50.00
2023-02-14T09:03:03.979Z,50.00
2023-02-14T09:05:32.348Z,50.10
2023-02-14T09:08:00.258Z,50.20
2023-02-14T09:10:28.684Z,50.20
2023-02-14T09:12:56.571Z,50.30
2023-02-14T09:15:25.934Z,50.70
2023-02-14T09:17:53.884Z,51.20
2023-02-14T09:20:22.607Z,52.20
2023-02-14T09:22:50.590Z,53.60
2023-02-14T09:25:18.838Z,54.70
2023-02-14T09:27:46.705Z,55.80
2023-02-14T09:30:15.916Z,56.30
2023-02-14T09:32:45.260Z,56.30
2023-02-14T09:35:19.329Z,55.90
2023-02-14T09:37:52.888Z,55.30
2023-02-14T09:40:22.035Z,54.00
2023-02-14T09:42:56.180Z,53.00
2023-02-14T09:45:27.578Z,51.80
2023-02-14T09:48:02.214Z,50.50
2023-02-14T09:50:34.707Z,48.70
2023-02-14T09:53:07.325Z,47.30
2023-02-14T09:55:41.125Z,47.30
2023-02-14T09:58:17.472Z,46.30
2023-02-14T10:00:49.997Z,45.20
2023-02-14T10:03:37.265Z,44.10
2023-02-14T10:06:13.585Z,41.90
2023-02-14T10:08:53.972Z,42.30
2023-02-14T10:11:24.827Z,41.50
2023-02-14T10:13:57.615Z,39.70
2023-02-14T10:16:31.502Z,40.20
2023-02-14T10:19:03.877Z,39.40
2023-02-14T10:21:35.916Z,39.20
2023-02-14T10:24:12.595Z,39.00
2023-02-14T10:26:41.850Z,38.10
2023-02-14T10:29:15.621Z,38.10
2023-02-14T10:31:55.561Z,37.50
2023-02-14T10:34:31.933Z,37.20
2023-02-14T10:37:26.306Z,36.70
2023-02-14T10:40:19.908Z,35.30
2023-02-14T10:42:55.685Z,33.00
2023-02-14T10:45:34.304Z,33.70
2023-02-14T10:48:10.308Z,34.00
2023-02-14T10:50:47.873Z,33.50
2023-02-14T10:53:23.962Z,33.50
2023-02-14T10:55:56.967Z,33.80
2023-02-14T10:58:27.871Z,33.90
2023-02-14T11:01:01.416Z,34.10
2023-02-14T11:03:31.053Z,33.60
2023-02-14T11:06:00.337Z,33.50
2023-02-14T11:08:29.984Z,33.40
2023-02-14T11:11:09.012Z,33.30
2023-02-14T11:13:39.285Z,32.00
2023-02-14T11:16:11.062Z,32.40
2023-02-14T11:18:40.795Z,31.70
2023-02-14T11:21:13.638Z,31.90
2023-02-14T11:23:43.718Z,31.40
2023-02-14T11:26:23.952Z,31.50
2023-02-14T11:28:57.134Z,30.60
2023-02-14T11:31:33.678Z,31.10
2023-02-14T11:34:05.011Z,29.10
2023-02-14T11:36:42.289Z,29.10
2023-02-14T11:39:25.385Z,29.20
2023-02-14T11:41:56.566Z,29.40
2023-02-14T11:44:26.948Z,29.10
2023-02-14T11:46:56.809Z,27.70
2023-02-14T11:49:31.502Z,28.80
2023-02-14T11:52:10.327Z,28.10
2023-02-14T11:54:41.531Z,28.20
2023-02-14T11:57:14.528Z,28.60
2023-02-14T11:59:45.053Z,28.90
2023-02-14T12:02:24.345Z,29.00
2023-02-14T12:04:56.635Z,28.80
2023-02-14T12:07:29.694Z,28.90
2023-02-14T12:10:26.902Z,28.90
2023-02-14T12:13:01.754Z,28.90
2023-02-14T12:15:37.929Z,28.80
2023-02-14T12:18:47.944Z,29.00
2023-02-14T12:21:28.642Z,28.90
2023-02-14T12:24:05.446Z,28.60
2023-02-14T12:26:37.344Z,28.60
2023-02-14T12:29:14.805Z,28.60
2023-02-14T12:31:43.964Z,28.30
2023-02-14T12:34:14.801Z,28.50
2023-02-14T12:36:56.267Z,28.30
2023-02-14T12:39:34.451Z,28.00
2023-02-14T12:42:13.658Z,27.90
2023-02-14T12:44:52.984Z,27.90
2023-02-14T12:47:37.682Z,27.80
2023-02-14T12:50:34.752Z,27.90
2023-02-14T12:53:32.845Z,27.80
2023-02-14T12:56:10.843Z,27.70
2023-02-14T12:58:47.464Z,27.80
2023-02-14T13:01:41.682Z,27.80
2023-02-14T13:04:49.290Z,27.70
2023-02-14T13:07:25.562Z,27.80
2023-02-14T13:10:00.718Z,27.80
2023-02-14T13:12:37.225Z,27.60
2023-02-14T13:15:16.556Z,27.50
2023-02-14T13:17:49.726Z,27.50
2023-02-14T13:20:35.424Z,27.60
2023-02-14T13:23:06.404Z,27.40
2023-02-14T13:25:41.721Z,27.60
2023-02-14T13:28:15.227Z,27.80
2023-02-14T13:30:43.287Z,27.50
2023-02-14T13:33:28.338Z,27.60
2023-02-14T13:36:00.529Z,27.30
2023-02-14T13:38:31.699Z,27.40
2023-02-14T13:41:03.574Z,27.40
2023-02-14T13:43:56.256Z,27.40
2023-02-14T13:46:55.202Z,27.30
2023-02-14T13:49:32.823Z,27.40
2023-02-14T13:52:03.633Z,27.30
2023-02-14T13:54:35.681Z,27.50
2023-02-14T13:57:24.199Z,27.40
2023-02-14T14:00:37.694Z,27.50
2023-02-14T14:03:08.994Z,27.50
2023-02-14T14:05:59.461Z,27.60
2023-02-14T14:08:46.641Z,27.50
2023-02-14T14:12:00.781Z,27.40
2023-02-14T14:14:37.822Z,27.50
2023-02-14T14:17:25.945Z,27.60
2023-02-14T14:19:54.456Z,27.40
2023-02-14T14:22:22.897Z,27.50
2023-02-14T14:25:11.481Z,27.50
2023-02-14T14:27:45.129Z,27.40
2023-02-14T14:30:23.545Z,27.50
2023-02-14T14:32:51.919Z,27.40
2023-02-14T14:35:22.543Z,27.40
2023-02-14T14:37:52.979Z,27.40
2023-02-14T14:40:25.987Z,27.40
2023-02-14T14:42:55.133Z,27.40
2023-02-14T14:45:26.939Z,27.50
2023-02-14T14:47:59.364Z,27.50
2023-02-14T14:50:29.555Z,27.50
2023-02-14T14:53:01.913Z,27.50
2023-02-14T14:55:34.434Z,27.40
2023-02-14T14:58:04.212Z,27.40
2023-02-14T15:00:35.554Z,27.50
2023-02-14T15:03:07.027Z,27.40
2023-02-14T15:05:37.550Z,27.40
2023-02-14T15:08:21.791Z,27.50
2023-02-14T15:10:54.243Z,27.40
2023-02-14T15:13:48.851Z,27.30
2023-02-14T15:16:23.328Z,27.40
2023-02-14T15:18:54.115Z,27.30
2023-02-14T15:21:22.154Z,27.40
2023-02-14T15:23:50.363Z,27.50
2023-02-14T15:26:24.430Z,27.60
2023-02-14T15:28:57.947Z,27.60
2023-02-14T15:31:31.118Z,27.70
2023-02-14T15:34:01.423Z,27.70
2023-02-14T15:36:30.047Z,27.80
2023-02-14T15:38:59.629Z,27.80
2023-02-14T15:41:28.239Z,27.90
2023-02-14T15:43:58.051Z,28.00
2023-02-14T15:46:35.194Z,28.10
2023-02-14T15:49:10.382Z,28.20
2023-02-14T15:51:39.551Z,28.30
2023-02-14T15:54:09.274Z,28.30
2023-02-14T15:56:42.878Z,28.30
2023-02-14T15:59:18.438Z,28.30
2023-02-14T16:01:54.486Z,28.40
2023-02-14T16:04:28.399Z,28.50
2023-02-14T16:07:15.916Z,28.50
2023-02-14T16:09:44.079Z,28.70
2023-02-14T16:12:31.048Z,28.70
2023-02-14T16:15:10.487Z,29.10
2023-02-14T16:17:41.938Z,29.10
2023-02-14T16:20:26.947Z,29.50
2023-02-14T16:23:14.737Z,29.60
2023-02-14T16:25:42.908Z,29.50
2023-02-14T16:28:10.928Z,29.60
2023-02-14T16:30:40.690Z,29.80
2023-02-14T16:33:16.983Z,30.00
2023-02-14T16:35:45.908Z,30.30
2023-02-14T16:38:16.361Z,30.20
2023-02-14T16:40:47.876Z,30.50
2023-02-14T16:43:17.528Z,30.60
2023-02-14T16:45:46.043Z,30.80
2023-02-14T16:48:16.321Z,30.90
2023-02-14T16:50:45.409Z,31.10
2023-02-14T16:53:22.885Z,31.30
2023-02-14T16:55:52.899Z,31.60
2023-02-14T16:58:21.719Z,32.00
2023-02-14T17:00:49.575Z,31.80
2023-02-14T17:03:19.263Z,31.90
2023-02-14T17:05:47.422Z,32.10
2023-02-14T17:08:16.329Z,32.20
2023-02-14T17:10:47.555Z,32.40
2023-02-14T17:13:19.945Z,32.60
2023-02-14T17:15:48.381Z,32.70
2023-02-14T17:18:19.027Z,32.70
2023-02-14T17:20:47.222Z,32.90
2023-02-14T17:23:15.666Z,32.90
2023-02-14T17:25:43.483Z,33.10
2023-02-14T17:28:11.922Z,33.20
2023-02-14T17:30:40.426Z,33.30
2023-02-14T17:33:08.476Z,33.50
2023-02-14T17:35:38.109Z,33.70
2023-02-14T17:38:06.148Z,34.00
2023-02-14T17:40:34.265Z,34.00
2023-02-14T17:43:02.470Z,34.20
2023-02-14T17:45:30.598Z,34.30
2023-02-14T17:47:58.555Z,34.40
2023-02-14T17:50:26.572Z,34.50
2023-02-14T17:52:56.698Z,34.60
2023-02-14T17:55:25.178Z,34.70
2023-02-14T17:57:53.355Z,34.80
2023-02-14T18:00:22.263Z,34.80
2023-02-14T18:02:50.512Z,35.00
2023-02-14T18:05:19.165Z,35.20
2023-02-14T18:07:47.550Z,35.20
2023-02-14T18:10:16.906Z,35.30
2023-02-14T18:12:45.002Z,35.40
2023-02-14T18:15:12.855Z,35.60
2023-02-14T18:17:40.853Z,35.60
2023-02-14T18:20:09.703Z,35.60
2023-02-14T18:22:37.688Z,35.80
2023-02-14T18:25:06.294Z,35.90
2023-02-14T18:27:35.562Z,36.00
2023-02-14T18:30:03.630Z,36.10
2023-02-14T18:32:31.588Z,36.10
2023-02-14T18:34:59.937Z,36.30
2023-02-14T18:37:28.037Z,36.30
2023-02-14T18:39:55.903Z,36.40
2023-02-14T18:42:24.338Z,36.50
2023-02-14T18:44:53.707Z,37.00
2023-02-14T18:47:22.263Z,36.70
2023-02-14T18:49:50.281Z,36.60
2023-02-14T18:52:18.283Z,36.60
2023-02-14T18:54:46.281Z,36.70
2023-02-14T18:57:14.206Z,36.80
2023-02-14T18:59:42.322Z,36.90
2023-02-14T19:02:11.835Z,37.00
2023-02-14T19:04:40.024Z,37.50
2023-02-14T19:07:08.234Z,37.10
2023-02-14T19:09:39.860Z,37.10
2023-02-14T19:12:08.536Z,37.20
2023-02-14T19:14:37.414Z,37.20
2023-02-14T19:17:06.089Z,37.30
2023-02-14T19:19:36.081Z,37.40
2023-02-14T19:22:04.213Z,37.40
2023-02-14T19:24:32.235Z,37.40
2023-02-14T19:27:00.219Z,37.30
2023-02-14T19:29:28.257Z,37.50
2023-02-14T19:31:57.001Z,37.70
2023-02-14T19:34:28.910Z,38.20
2023-02-14T19:37:00.720Z,37.80
2023-02-14T19:39:30.426Z,37.90
2023-02-14T19:42:00.016Z,37.90
2023-02-14T19:44:29.385Z,38.00
2023-02-14T19:46:59.907Z,38.10
2023-02-14T19:49:29.153Z,38.10
2023-02-14T19:51:59.609Z,38.30
2023-02-14T19:54:27.498Z,38.30
2023-02-14T19:56:56.299Z,38.30
2023-02-14T19:59:24.531Z,38.40
2023-02-14T20:01:53.988Z,38.50
2023-02-14T20:04:23.745Z,38.90
2023-02-14T20:06:53.119Z,38.60
2023-02-14T20:09:23.706Z,38.60
2023-02-14T20:11:54.527Z,38.80
2023-02-14T20:14:24.205Z,38.80
2023-02-14T20:16:53.500Z,38.90
2023-02-14T20:19:24.351Z,38.90
2023-02-14T20:21:52.417Z,39.00
2023-02-14T20:24:23.395Z,39.00
2023-02-14T20:26:52.505Z,39.10
2023-02-14T20:29:22.197Z,39.20
2023-02-14T20:31:52.357Z,39.20
2023-02-14T20:34:21.435Z,39.30
2023-02-14T20:36:53.086Z,39.30
2023-02-14T20:39:24.027Z,39.30
2023-02-14T20:41:53.131Z,39.50
2023-02-14T20:44:21.855Z,39.40
2023-02-14T20:46:51.450Z,39.50
2023-02-14T20:49:20.391Z,39.60
2023-02-14T20:51:50.064Z,39.70
2023-02-14T20:54:18.558Z,39.80
2023-02-14T20:56:48.602Z,40.00
2023-02-14T20:59:16.542Z,40.00
2023-02-14T21:01:44.963Z,40.00
2023-02-14T21:04:13.924Z,40.10
2023-02-14T21:06:42.121Z,40.20
2023-02-14T21:09:10.310Z,40.20
2023-02-14T21:11:38.252Z,40.20
2023-02-14T21:14:07.534Z,40.30
2023-02-14T21:16:35.468Z,40.40
2023-02-14T21:19:04.651Z,40.40
2023-02-14T21:21:36.466Z,40.40
2023-02-14T21:24:06.263Z,40.60
2023-02-14T21:26:34.501Z,41.10
2023-02-14T21:29:02.493Z,40.60
2023-02-14T21:31:32.753Z,40.80
2023-02-14T21:34:02.720Z,40.90
2023-02-14T21:36:32.685Z,40.90
2023-02-14T21:39:01.119Z,41.10
2023-02-14T21:41:33.400Z,41.10
2023-02-14T21:44:03.348Z,41.10
2023-02-14T21:46:33.816Z,41.10
2023-02-14T21:49:21.826Z,41.10
2023-02-14T21:51:50.263Z,41.10
2023-02-14T21:54:18.497Z,41.00
2023-02-14T21:56:46.578Z,41.20
2023-02-14T21:59:14.730Z,41.30
2023-02-14T22:01:44.328Z,41.30
2023-02-14T22:04:13.679Z,41.50
2023-02-14T22:06:43.101Z,41.70
2023-02-14T22:09:13.275Z,41.50
2023-02-14T22:11:41.273Z,41.50
2023-02-14T22:14:09.656Z,41.50
2023-02-14T22:16:38.204Z,41.50
2023-02-14T22:19:09.298Z,41.60
2023-02-14T22:21:37.335Z,41.70
2023-02-14T22:24:05.941Z,41.70
2023-02-14T22:26:35.538Z,41.80
2023-02-14T22:29:04.066Z,41.80
2023-02-14T22:31:36.455Z,41.90
2023-02-14T22:34:05.040Z,41.90
2023-02-14T22:36:34.587Z,41.90
2023-02-14T22:39:02.890Z,41.90
2023-02-14T22:41:30.857Z,42.00
2023-02-14T22:43:58.957Z,42.00
2023-02-14T22:46:29.064Z,42.10
2023-02-14T22:48:58.165Z,42.00
2023-02-14T22:51:28.663Z,42.10
2023-02-14T22:53:59.655Z,42.10
2023-02-14T22:56:30.972Z,42.10
2023-02-14T22:59:00.814Z,42.10
2023-02-14T23:01:28.823Z,42.20
2023-02-14T23:03:58.159Z,42.20
2023-02-14T23:06:27.347Z,42.20
2023-02-14T23:08:57.928Z,42.30
2023-02-14T23:11:28.323Z,42.30
2023-02-14T23:14:14.328Z,42.30
2023-02-14T23:17:00.530Z,42.40
2023-02-14T23:19:47.916Z,42.30
2023-02-14T23:22:19.585Z,42.30
2023-02-14T23:24:50.118Z,42.30
2023-02-14T23:27:20.199Z,42.40
2023-02-14T23:29:48.270Z,42.50
2023-02-14T23:32:16.746Z,42.60
2023-02-14T23:34:45.742Z,42.60
2023-02-14T23:37:14.696Z,42.60
2023-02-14T23:39:42.972Z,42.70
2023-02-14T23:42:14.585Z,42.60
2023-02-14T23:44:44.185Z,42.80
2023-02-14T23:47:13.938Z,42.80
2023-02-14T23:49:42.771Z,42.80
2023-02-14T23:52:12.479Z,42.80
2023-02-14T23:54:40.435Z,42.80
2023-02-14T23:57:09.688Z,42.90
2023-02-14T23:59:39.432Z,43.00
